Hauptseite
METAR-TAF:

METAR-TAF

Flughäfen :

Hawarden Airport

Hawarden, Wales

Breite: 53-10N, Länge: 002-59W, Höhe: 10 m

Beobachtung

Neuester Wetterbericht von vor 4 Stunden und 9 Minuten, um 19:50 UTC
Wind 4 kt aus Ost/Südost
Temperatur 8°C
Luftfeuchtigkeit 93%
Luftdruck 1007 hPa
Sichtweite: 6000 m

METAR: EGNR 231950Z 11004KT 6000 NSC 08/07 Q1007

Zeit: 00:59 (23:59 UTC)

Prognose

Neuester Wetterbericht von vor 5 Stunden und 58 Minuten, um 18:01 UTC
Gültige Prognose vom 23 um 18 UTC bis 23 um 20 UTC
Wind 8 kt aus Süd
Sichtweite 10 km oder mehr
Leicht bewölkt in der Höhe von 3500 ft
Zeitweise
vom 23 um 18 UTC bis 23 um 20 UTC
Sichtweite: 9000 m

TAF: EGNR 231801Z 2318/2320 17008KT 9999 FEW035 TEMPO 2318/2320 9000

Wetterbeobachtungen und Prognosen von mehr als 4000 Flughäfen (METAR und TAF Bericht).

Die verfügbaren Stationen werden durch gelbe und rote Markierungen auf der Karte dargestellt.

Führen Sie die Maus auf sie, um den Namen der Station zu sehen.

Darauf klicken, um die Beobachtung von Wetterbeobachtungen und Prognosen zu sehen.

Um die Karte zu ändern : klicken Sie auf den grünen Tasten mit einem schwarzen Kreuz Zum Vergrößern, auf den grünen Button mit einem Gedankenstrich zu verkleinern, oder auf die grünen Pfeile für benachbarte Karten.


METAR-TAF: